Airfield :
LOGIN :

Register | Disclaimer

   EN    FR    IT 

 










Legend :    VFR   Marginal VFR   IFR   Intensive IFR   Very Intensive IFR
Visi :
Ceiling :
>= 8 km
>= 3000ft
5 to 8 km
1000 to 3000 ft
1500m to 5 km
500 to 1000 ft
800 to 1500m
200 to 500 ft
< 800m
< 200 ft
Symbols :   Thunderstorms  Fog  Heavy snow  Heavy precipitations  Wind > 20 kt
SIGMETs :     Misc.  Thunderstorms  Icing  Turbulence  Mountain Waves  Volcanic Ashes







- Airport Elevation : 157 ft
- IATA code : LIL
- Download approach charts


LFQQ - Lille Lesquin

CURRENT METAR :
  • 152200Z AUTO 18003KT CAVOK 15/09 Q1022 NOSIG

EXPIRED METARs :
  • 152130Z AUTO 00000KT CAVOK 16/09 Q1022 NOSIG
  • 152100Z AUTO 30003KT CAVOK 16/09 Q1023 NOSIG
  • 152030Z AUTO 25002KT CAVOK 17/09 Q1022 NOSIG
  • 152000Z AUTO 16002KT CAVOK 18/09 Q1023 NOSIG
  • 151930Z AUTO 35005KT CAVOK 19/09 Q1023 NOSIG

TAF TAF LFQQ
Valid from the 15 at 18:00 until the 17 at 00:00 UTC


151700Z 1518/1624 34006KT CAVOK
BECMG 1608/1610 27010KT
BECMG 1614/1616 33010KT OVC013
TEMPO 1616/1621 3000 DZ OVC005
BECMG 1621/1623 BKN025
ATIS : +33 3 20 16 19 54
No reported NOTAMs for that airfield.



MET'MAP, your aeronautical weather chart ! - Copyright ORBIFLY December 2007 - Disclaimer

ORBIFLY MET'MAP TEAM :

Programming & Development : Alexandra Zaïnal
Concept & Development : Baudouin d'Aumeries
Co-Development & Prog : Marc-Olivier Méhu
Technical & hardware support : Manuel Goepfert

Contact : metmap@orbifly.com




SOURCES & CREDITS :

   NOAA